Time;durP1;ratioP1;P1;durP2;ratioP2;P2;SDS_P1;SDS_P2;PMS_P1;PMS_P2;Temp;Humidity;BMP_temperature;BMP_pressure;BME280_temperature;BME280_humidity;BME280_pressure;Samples;Min_cycle;Max_cycle;Signal;HPM_P1;HPM_P2
2021/04/26 00:00:51;;;;;;;1.45;1.25;;;23.40;26.40;;;;;;5009909;28;20230;-57
2021/04/26 00:03:16;;;;;;;1.60;1.50;;;23.40;26.20;;;;;;5011868;28;20204;-57
2021/04/26 00:05:42;;;;;;;1.65;1.55;;;23.50;26.30;;;;;;5010952;28;20289;-57
2021/04/26 00:08:08;;;;;;;1.40;1.30;;;23.40;26.30;;;;;;5011178;28;20214;-57
2021/04/26 00:10:34;;;;;;;1.30;1.20;;;23.40;26.30;;;;;;5009798;28;20597;-59
2021/04/26 00:13:00;;;;;;;1.53;1.43;;;23.40;26.30;;;;;;5011970;28;20253;-57
2021/04/26 00:15:26;;;;;;;1.40;1.30;;;23.40;26.40;;;;;;5010788;28;20678;-57
2021/04/26 00:17:52;;;;;;;1.17;1.10;;;23.40;26.40;;;;;;5011413;28;20218;-57
2021/04/26 00:20:18;;;;;;;1.33;1.23;;;23.40;26.40;;;;;;5009628;28;20605;-57
2021/04/26 00:22:44;;;;;;;1.30;1.20;;;23.40;26.40;;;;;;5011771;28;20218;-57
2021/04/26 00:25:10;;;;;;;1.98;1.20;;;23.40;26.40;;;;;;5010746;28;20234;-57
2021/04/26 00:27:36;;;;;;;1.10;1.00;;;23.40;26.50;;;;;;5010699;28;20269;-57
2021/04/26 00:30:02;;;;;;;1.30;1.20;;;23.40;26.50;;;;;;5010201;28;20210;-57
2021/04/26 00:32:28;;;;;;;1.70;1.13;;;23.40;26.50;;;;;;5010484;28;20630;-57
2021/04/26 00:34:54;;;;;;;1.50;1.40;;;23.40;26.50;;;;;;5010371;28;20338;-57
2021/04/26 00:37:20;;;;;;;1.70;1.58;;;23.40;26.40;;;;;;5010678;28;20232;-57
2021/04/26 00:39:46;;;;;;;1.55;1.45;;;23.40;26.50;;;;;;5010266;28;20204;-57
2021/04/26 00:42:12;;;;;;;2.20;1.25;;;23.40;26.50;;;;;;5009567;28;20319;-57
2021/04/26 00:44:38;;;;;;;1.73;1.23;;;23.40;26.50;;;;;;5009554;28;20227;-57
2021/04/26 00:47:04;;;;;;;1.60;1.50;;;23.40;26.50;;;;;;5009547;28;20209;-57
2021/04/26 00:49:30;;;;;;;1.40;1.30;;;23.40;26.50;;;;;;5008844;28;20206;-57
2021/04/26 00:51:56;;;;;;;1.20;1.10;;;23.40;26.50;;;;;;5009850;28;20273;-57
2021/04/26 00:54:22;;;;;;;1.30;1.20;;;23.40;26.60;;;;;;5010975;28;20208;-57
2021/04/26 00:56:48;;;;;;;1.10;1.10;;;23.40;26.50;;;;;;5009090;28;20237;-57
2021/04/26 00:59:14;;;;;;;1.33;1.23;;;23.40;26.50;;;;;;5009333;28;20218;-57
2021/04/26 01:01:40;;;;;;;1.75;1.30;;;23.40;26.50;;;;;;5007851;28;20203;-57
2021/04/26 01:04:06;;;;;;;2.10;1.30;;;23.40;26.50;;;;;;5009305;28;20758;-57
2021/04/26 01:06:32;;;;;;;1.23;1.20;;;23.40;26.50;;;;;;5009916;28;20214;-57
2021/04/26 01:08:57;;;;;;;2.42;1.20;;;23.40;26.50;;;;;;5010328;28;20219;-61
2021/04/26 01:11:23;;;;;;;1.52;1.10;;;23.40;26.60;;;;;;5009683;28;20571;-57
2021/04/26 01:13:49;;;;;;;1.73;1.50;;;23.40;26.60;;;;;;5000178;28;20210;-57
2021/04/26 01:16:15;;;;;;;1.60;1.33;;;23.40;26.60;;;;;;5009524;28;20199;-56
2021/04/26 01:18:41;;;;;;;1.20;1.10;;;23.40;26.60;;;;;;5008112;28;20223;-56
2021/04/26 01:21:07;;;;;;;1.30;1.20;;;23.40;26.60;;;;;;5010702;28;20213;-56
2021/04/26 01:23:33;;;;;;;1.10;1.10;;;23.40;26.60;;;;;;5010148;28;20536;-56
2021/04/26 01:25:59;;;;;;;1.40;1.30;;;23.40;26.60;;;;;;5010371;28;20195;-57
2021/04/26 01:28:25;;;;;;;1.00;1.00;;;23.40;26.60;;;;;;5007988;28;20222;-57
2021/04/26 01:30:51;;;;;;;1.37;1.27;;;23.40;26.60;;;;;;5010459;28;20233;-57
2021/04/26 01:33:17;;;;;;;1.50;1.20;;;23.40;26.60;;;;;;5009985;28;20233;-57
2021/04/26 01:35:43;;;;;;;1.10;1.10;;;23.40;26.60;;;;;;5010253;28;20609;-59
2021/04/26 01:38:09;;;;;;;0.97;0.97;;;23.40;26.60;;;;;;5009052;28;20227;-57
2021/04/26 01:40:35;;;;;;;1.20;1.10;;;23.40;26.60;;;;;;5009847;28;20238;-57
2021/04/26 01:43:01;;;;;;;1.20;1.10;;;23.40;26.60;;;;;;5010401;28;20544;-57
2021/04/26 01:45:27;;;;;;;1.50;1.40;;;23.40;26.60;;;;;;5014127;28;20227;-56
2021/04/26 01:47:53;;;;;;;1.20;1.10;;;23.40;26.60;;;;;;5012719;28;20238;-56
2021/04/26 01:50:19;;;;;;;1.17;1.08;;;23.40;26.70;;;;;;5012646;28;20213;-57
2021/04/26 01:52:45;;;;;;;1.00;1.00;;;23.40;26.70;;;;;;5013432;28;20214;-57
2021/04/26 01:55:11;;;;;;;1.30;1.20;;;23.40;26.70;;;;;;5012424;28;20623;-57
2021/04/26 01:57:37;;;;;;;1.30;1.10;;;23.40;26.70;;;;;;5012857;28;20246;-57
2021/04/26 02:00:03;;;;;;;1.42;1.33;;;23.40;26.70;;;;;;5012033;28;20207;-57
2021/04/26 02:02:29;;;;;;;1.10;1.10;;;23.40;26.70;;;;;;5013980;28;20206;-57
2021/04/26 02:04:55;;;;;;;1.30;1.20;;;23.40;26.80;;;;;;5012761;28;20266;-57
2021/04/26 02:07:21;;;;;;;1.38;1.27;;;23.40;26.80;;;;;;5013187;28;20749;-57
2021/04/26 02:09:47;;;;;;;1.33;1.08;;;23.40;26.70;;;;;;5011413;28;20207;-58
2021/04/26 02:12:12;;;;;;;1.20;1.10;;;23.40;26.70;;;;;;5013552;28;20203;-57
2021/04/26 02:14:38;;;;;;;1.33;1.23;;;23.40;26.70;;;;;;5012959;28;20210;-57
2021/04/26 02:17:04;;;;;;;2.23;1.20;;;23.40;26.80;;;;;;5012070;28;20227;-57
2021/04/26 02:19:30;;;;;;;1.33;1.10;;;23.40;26.70;;;;;;5011621;28;20214;-58
2021/04/26 02:21:56;;;;;;;2.10;1.40;;;23.40;26.80;;;;;;5013709;28;20214;-58
2021/04/26 02:24:22;;;;;;;1.15;1.13;;;23.40;27.10;;;;;;5013022;28;20237;-51
2021/04/26 02:26:48;;;;;;;1.15;1.10;;;23.40;27.10;;;;;;5013319;28;20219;-53
2021/04/26 02:29:14;;;;;;;2.47;1.60;;;23.40;27.00;;;;;;5012682;28;20203;-51
2021/04/26 02:31:40;;;;;;;1.50;1.40;;;23.40;26.90;;;;;;5013177;28;20195;-49
2021/04/26 02:34:06;;;;;;;1.23;1.10;;;23.40;26.90;;;;;;5012655;28;20211;-51
2021/04/26 02:36:32;;;;;;;2.17;1.30;;;23.40;26.90;;;;;;5012183;28;20230;-50
2021/04/26 02:38:58;;;;;;;2.90;1.48;;;23.40;26.90;;;;;;5011909;28;20664;-52
2021/04/26 02:41:24;;;;;;;2.17;1.40;;;23.40;26.90;;;;;;5013626;28;20199;-55
2021/04/26 02:43:50;;;;;;;2.03;1.17;;;23.40;27.00;;;;;;5011702;28;20310;-53
2021/04/26 02:46:16;;;;;;;1.20;1.10;;;23.40;26.90;;;;;;5012884;28;20254;-53
2021/04/26 02:48:42;;;;;;;1.20;1.10;;;23.40;26.90;;;;;;5010883;28;20211;-52
2021/04/26 02:51:08;;;;;;;1.30;1.20;;;23.40;26.90;;;;;;5011613;28;20792;-55
2021/04/26 02:53:34;;;;;;;1.52;1.40;;;23.40;26.90;;;;;;5011120;28;20269;-54
2021/04/26 02:56:00;;;;;;;2.42;1.58;;;23.40;26.90;;;;;;5010667;28;20195;-50
2021/04/26 02:58:26;;;;;;;1.33;1.23;;;23.40;27.00;;;;;;5011332;28;20647;-48
2021/04/26 03:00:52;;;;;;;3.53;1.30;;;23.40;26.90;;;;;;5011892;28;20199;-50
2021/04/26 03:03:18;;;;;;;2.38;1.23;;;23.40;27.00;;;;;;5011841;28;20202;-52
2021/04/26 03:05:44;;;;;;;2.13;1.60;;;23.40;27.00;;;;;;5012315;28;20206;-54
2021/04/26 03:08:10;;;;;;;1.73;1.50;;;23.40;27.00;;;;;;5012392;28;20230;-52
2021/04/26 03:10:36;;;;;;;1.60;1.40;;;23.40;27.00;;;;;;5010716;28;20207;-50
2021/04/26 03:13:02;;;;;;;1.70;1.30;;;23.40;27.00;;;;;;5012069;28;20203;-53
2021/04/26 03:15:28;;;;;;;2.00;1.10;;;23.40;27.00;;;;;;4995694;28;20203;-52
2021/04/26 03:17:54;;;;;;;1.53;1.43;;;23.40;27.00;;;;;;5009347;28;20231;-51
2021/04/26 03:20:20;;;;;;;1.47;1.37;;;23.40;27.00;;;;;;4993154;28;20204;-52
2021/04/26 03:22:46;;;;;;;1.60;1.20;;;23.40;27.00;;;;;;5006037;28;20240;-51
2021/04/26 03:25:12;;;;;;;1.27;1.17;;;23.40;27.00;;;;;;5011141;28;20241;-53
2021/04/26 03:27:38;;;;;;;1.30;1.20;;;23.40;27.00;;;;;;5012310;28;20238;-50
2021/04/26 03:30:04;;;;;;;2.08;1.30;;;23.40;27.00;;;;;;5010298;28;20206;-51
2021/04/26 03:32:30;;;;;;;1.63;1.20;;;23.40;27.00;;;;;;5011956;28;20206;-51
2021/04/26 03:34:56;;;;;;;1.53;1.43;;;23.40;27.10;;;;;;5011562;28;20210;-48
2021/04/26 03:37:22;;;;;;;1.40;1.30;;;23.40;27.10;;;;;;5011599;28;20698;-52
2021/04/26 03:39:48;;;;;;;3.20;1.42;;;23.40;27.10;;;;;;5011406;28;20206;-50
2021/04/26 03:42:14;;;;;;;1.83;1.40;;;23.40;27.00;;;;;;5012198;28;20202;-53
2021/04/26 03:44:40;;;;;;;3.60;1.40;;;23.40;27.10;;;;;;5011383;28;20230;-54
2021/04/26 03:47:06;;;;;;;1.90;1.30;;;23.40;27.10;;;;;;5011577;28;20244;-52
2021/04/26 03:49:32;;;;;;;2.90;1.33;;;23.40;27.10;;;;;;5011561;28;20200;-50
2021/04/26 03:51:58;;;;;;;2.05;1.20;;;23.40;27.10;;;;;;4996325;28;20250;-52
2021/04/26 03:54:24;;;;;;;1.30;1.20;;;23.30;27.00;;;;;;5011493;28;20214;-53
2021/04/26 03:56:50;;;;;;;1.73;1.20;;;23.40;27.10;;;;;;5010649;28;20833;-51
2021/04/26 03:59:16;;;;;;;1.60;1.50;;;23.40;27.10;;;;;;5010138;28;20230;-54
2021/04/26 04:01:42;;;;;;;1.80;1.40;;;23.40;27.10;;;;;;5010888;28;20200;-50
2021/04/26 04:04:08;;;;;;;1.87;1.20;;;23.40;27.10;;;;;;5010747;28;20712;-53
2021/04/26 04:06:34;;;;;;;1.40;1.30;;;23.40;27.10;;;;;;5011158;28;20299;-55
2021/04/26 04:09:00;;;;;;;3.28;1.30;;;23.40;27.10;;;;;;5011362;28;20203;-51
2021/04/26 04:11:25;;;;;;;2.92;1.48;;;23.40;27.20;;;;;;5010273;28;20203;-55
2021/04/26 04:13:51;;;;;;;1.95;1.48;;;23.40;27.10;;;;;;5010702;28;20214;-54
2021/04/26 04:16:17;;;;;;;1.98;1.33;;;23.40;27.20;;;;;;5011156;28;20761;-54
2021/04/26 04:18:43;;;;;;;3.87;1.50;;;23.40;27.20;;;;;;5010295;28;20199;-53
2021/04/26 04:21:09;;;;;;;1.47;1.10;;;23.40;27.20;;;;;;5010691;28;20292;-54
2021/04/26 04:23:35;;;;;;;1.80;1.37;;;23.40;27.20;;;;;;5010991;28;20211;-55
2021/04/26 04:26:01;;;;;;;1.20;1.10;;;23.40;27.20;;;;;;5011146;28;20628;-54
2021/04/26 04:28:27;;;;;;;1.50;1.30;;;23.40;27.20;;;;;;5009063;28;20207;-54
2021/04/26 04:30:53;;;;;;;1.33;1.23;;;23.40;27.20;;;;;;5010722;28;20206;-55
2021/04/26 04:33:19;;;;;;;1.30;1.20;;;23.40;27.20;;;;;;5011232;28;20211;-55
2021/04/26 04:35:45;;;;;;;1.30;1.20;;;23.40;27.10;;;;;;5010284;28;20280;-54
2021/04/26 04:38:11;;;;;;;1.52;1.25;;;23.40;27.20;;;;;;5010302;28;20239;-52
2021/04/26 04:40:37;;;;;;;1.90;1.42;;;23.40;27.20;;;;;;5009353;28;20556;-55
2021/04/26 04:43:03;;;;;;;1.42;1.10;;;23.40;27.20;;;;;;5010753;28;20195;-53
2021/04/26 04:45:29;;;;;;;1.30;1.20;;;23.40;27.20;;;;;;5008966;28;20234;-54
2021/04/26 04:47:55;;;;;;;2.03;1.20;;;23.40;27.20;;;;;;5000968;28;20219;-55
2021/04/26 04:50:21;;;;;;;1.73;1.45;;;23.40;27.20;;;;;;5009229;28;20207;-53
2021/04/26 04:52:47;;;;;;;2.17;1.73;;;23.30;27.10;;;;;;4995104;28;20577;-54
2021/04/26 04:55:13;;;;;;;1.60;1.50;;;23.40;27.20;;;;;;5008531;28;20242;-56
2021/04/26 04:57:39;;;;;;;1.70;1.25;;;23.30;27.10;;;;;;5004654;28;20227;-53
2021/04/26 05:00:05;;;;;;;1.65;1.30;;;23.30;27.10;;;;;;5009328;28;20207;-53
2021/04/26 05:02:31;;;;;;;2.33;1.20;;;23.30;27.20;;;;;;5009814;28;20202;-54
2021/04/26 05:04:57;;;;;;;2.53;1.40;;;23.40;27.20;;;;;;5010051;28;20245;-55
2021/04/26 05:07:23;;;;;;;1.33;1.23;;;23.40;27.30;;;;;;5009074;28;20219;-53
2021/04/26 05:09:49;;;;;;;2.03;1.40;;;23.40;27.30;;;;;;5010855;28;20206;-53
2021/04/26 05:12:15;;;;;;;1.50;1.40;;;23.40;27.30;;;;;;5008329;28;20729;-52
2021/04/26 05:14:42;;;;;;;1.63;1.10;;;23.40;27.20;;;;;;5010112;28;20214;-54
2021/04/26 05:17:08;;;;;;;1.88;1.30;;;23.40;27.20;;;;;;5009854;28;20239;-54
2021/04/26 05:19:34;;;;;;;1.33;1.23;;;23.40;27.80;;;;;;5009549;28;20203;-51
2021/04/26 05:22:00;;;;;;;1.43;1.27;;;23.40;27.20;;;;;;5008899;28;20199;-54
2021/04/26 05:24:26;;;;;;;1.42;1.20;;;23.40;27.20;;;;;;5010538;28;20215;-52
2021/04/26 05:26:52;;;;;;;1.65;1.30;;;23.40;27.30;;;;;;5004077;28;20238;-53
2021/04/26 05:29:18;;;;;;;1.50;1.38;;;23.40;27.30;;;;;;5008674;28;20524;-55
2021/04/26 05:31:44;;;;;;;1.33;1.23;;;23.40;27.30;;;;;;5005884;28;20247;-54
2021/04/26 05:36:45;;;;;;;1.83;1.17;;;23.40;27.30;;;;;;5061884;28;20237;-45
2021/04/26 05:39:11;;;;;;;1.30;1.20;;;23.40;27.20;;;;;;5050268;28;20198;-52
2021/04/26 05:41:37;;;;;;;1.40;1.30;;;23.40;27.30;;;;;;5048302;28;20202;-45
2021/04/26 05:44:03;;;;;;;1.70;1.50;;;23.40;27.30;;;;;;5050057;28;20233;-52
2021/04/26 05:46:29;;;;;;;1.13;1.13;;;23.40;27.30;;;;;;5048683;28;20221;-45
2021/04/26 05:48:55;;;;;;;1.77;1.67;;;23.40;27.30;;;;;;5049967;28;20638;-45
2021/04/26 05:51:21;;;;;;;1.50;1.40;;;23.40;27.30;;;;;;5049118;28;20208;-52
2021/04/26 05:53:47;;;;;;;1.20;1.10;;;23.40;27.40;;;;;;5049368;28;20670;-46
2021/04/26 05:56:13;;;;;;;1.43;1.20;;;23.40;27.30;;;;;;5048759;28;20229;-53
2021/04/26 05:58:39;;;;;;;1.98;1.60;;;23.40;27.30;;;;;;5048418;28;20498;-49
2021/04/26 06:01:05;;;;;;;1.58;1.48;;;23.40;27.40;;;;;;5047719;28;20198;-47
2021/04/26 06:03:31;;;;;;;1.48;1.27;;;23.40;27.30;;;;;;5049438;28;20205;-52
2021/04/26 06:05:57;;;;;;;1.33;1.20;;;23.40;27.40;;;;;;5048522;28;20647;-45
2021/04/26 06:08:23;;;;;;;2.20;1.20;;;23.40;27.30;;;;;;5034619;28;20210;-45
2021/04/26 06:10:49;;;;;;;2.50;1.43;;;23.40;27.30;;;;;;5044957;28;20202;-46
2021/04/26 06:13:15;;;;;;;1.67;1.23;;;23.40;27.30;;;;;;5048996;28;20198;-45
2021/04/26 06:15:41;;;;;;;1.80;1.40;;;23.40;27.30;;;;;;5049068;28;20209;-52
2021/04/26 06:18:07;;;;;;;1.55;1.45;;;23.40;27.30;;;;;;5048021;28;20205;-46
2021/04/26 06:20:33;;;;;;;1.33;1.00;;;23.40;27.50;;;;;;5048849;28;20201;-49
2021/04/26 06:22:59;;;;;;;2.87;1.57;;;23.40;27.80;;;;;;5048986;28;20210;-48
2021/04/26 06:25:25;;;;;;;1.35;1.25;;;23.40;28.00;;;;;;5055643;28;20609;-49
2021/04/26 06:27:51;;;;;;;2.08;1.30;;;23.40;28.30;;;;;;5048354;28;20202;-46
2021/04/26 06:30:17;;;;;;;2.38;1.20;;;23.30;28.20;;;;;;5051400;28;20228;-45
2021/04/26 06:32:43;;;;;;;3.28;1.45;;;23.40;28.30;;;;;;5050363;28;20280;-49
2021/04/26 06:35:09;;;;;;;3.10;1.63;;;23.40;28.30;;;;;;5051743;28;20304;-54
2021/04/26 06:37:34;;;;;;;2.67;1.60;;;23.40;28.30;;;;;;5051333;28;20723;-56
2021/04/26 06:40:00;;;;;;;6.00;1.50;;;23.50;28.40;;;;;;5050844;28;20212;-54
2021/04/26 06:42:26;;;;;;;5.13;1.50;;;23.50;28.40;;;;;;5052856;28;20198;-48
2021/04/26 06:44:52;;;;;;;3.70;1.30;;;23.60;28.00;;;;;;5051852;28;20225;-56
2021/04/26 06:47:18;;;;;;;6.03;1.42;;;23.60;28.50;;;;;;5049719;28;20709;-52
2021/04/26 06:49:44;;;;;;;5.43;2.08;;;23.60;28.30;;;;;;5050414;28;20198;-52
2021/04/26 06:52:10;;;;;;;3.60;1.60;;;23.50;28.10;;;;;;5048647;28;20312;-51
2021/04/26 06:54:36;;;;;;;5.07;2.90;;;23.50;28.40;;;;;;5051329;28;20232;-46
2021/04/26 06:57:02;;;;;;;7.10;2.28;;;23.60;33.40;;;;;;5049281;28;20226;-46
2021/04/26 06:59:28;;;;;;;6.85;2.33;;;23.50;33.70;;;;;;5050339;28;20242;-50
2021/04/26 07:01:54;;;;;;;8.35;2.35;;;23.50;32.70;;;;;;5052743;28;20202;-48
2021/04/26 07:04:20;;;;;;;9.13;2.63;;;23.40;33.80;;;;;;5051877;28;20229;-46
2021/04/26 07:06:46;;;;;;;6.03;3.00;;;23.40;34.80;;;;;;5051062;28;20693;-46
2021/04/26 07:09:12;;;;;;;4.00;2.53;;;23.40;34.20;;;;;;5052129;28;20761;-52
2021/04/26 07:11:39;;;;;;;6.57;2.80;;;23.40;34.30;;;;;;5052860;28;20190;-48
2021/04/26 07:14:05;;;;;;;6.00;2.47;;;23.40;34.70;;;;;;5051926;28;20210;-47
2021/04/26 07:16:31;;;;;;;7.72;3.90;;;23.40;33.80;;;;;;5052346;28;20767;-47
2021/04/26 07:18:57;;;;;;;8.23;3.80;;;23.00;28.00;;;;;;5048755;28;20340;-45
2021/04/26 07:21:23;;;;;;;8.80;4.73;;;21.80;27.90;;;;;;5050626;28;20209;-48
2021/04/26 07:23:49;;;;;;;6.90;4.30;;;20.80;25.00;;;;;;5049161;28;20544;-53
2021/04/26 07:26:15;;;;;;;6.50;3.50;;;18.30;25.80;;;;;;5047894;28;20323;-50
2021/04/26 07:28:41;;;;;;;5.93;3.17;;;20.00;26.00;;;;;;5049567;28;20213;-53
2021/04/26 07:31:07;;;;;;;5.77;2.97;;;21.10;26.70;;;;;;5050146;28;20209;-51
2021/04/26 07:33:33;;;;;;;5.63;3.00;;;21.80;26.40;;;;;;5051132;28;20276;-46
2021/04/26 07:35:59;;;;;;;5.90;2.67;;;22.20;26.70;;;;;;5048727;28;20317;-49
2021/04/26 07:38:25;;;;;;;3.17;2.33;;;22.50;26.80;;;;;;5049925;28;20207;-53
2021/04/26 07:40:51;;;;;;;2.90;2.50;;;22.70;27.00;;;;;;5048649;28;20546;-52
2021/04/26 07:43:17;;;;;;;4.57;2.53;;;22.80;27.00;;;;;;5051738;28;20232;-47
2021/04/26 07:45:43;;;;;;;4.33;2.40;;;22.90;27.30;;;;;;5050135;28;20277;-50
2021/04/26 07:48:09;;;;;;;3.73;2.53;;;23.00;27.50;;;;;;5049795;28;20658;-54
2021/04/26 07:50:35;;;;;;;2.17;1.97;;;23.10;28.30;;;;;;5051133;28;20205;-51
2021/04/26 07:53:00;;;;;;;3.40;2.20;;;23.10;27.90;;;;;;5050574;28;20593;-49
2021/04/26 07:55:26;;;;;;;3.40;2.70;;;23.20;27.90;;;;;;5046619;28;20268;-43
2021/04/26 07:57:52;;;;;;;2.97;2.03;;;23.20;28.20;;;;;;5048848;28;20283;-50
2021/04/26 08:00:18;;;;;;;4.53;1.63;;;23.30;28.60;;;;;;5050524;28;20328;-50
2021/04/26 08:02:44;;;;;;;3.37;2.23;;;23.40;29.10;;;;;;5049866;28;20202;-50
2021/04/26 08:05:10;;;;;;;3.93;2.10;;;23.40;28.80;;;;;;5048425;28;20706;-52
2021/04/26 08:07:36;;;;;;;3.60;2.50;;;23.40;28.90;;;;;;5051191;28;20204;-50
2021/04/26 08:10:02;;;;;;;3.63;2.03;;;23.40;28.80;;;;;;5048141;28;20208;-53
2021/04/26 08:12:28;;;;;;;2.80;2.20;;;23.50;29.90;;;;;;5048364;28;20197;-45
2021/04/26 08:14:54;;;;;;;2.40;1.98;;;23.50;29.90;;;;;;5048845;28;20665;-51
2021/04/26 08:17:20;;;;;;;5.47;2.33;;;23.60;29.20;;;;;;5048273;28;20236;-60
2021/04/26 08:19:46;;;;;;;2.47;2.03;;;23.50;30.00;;;;;;5049791;28;20198;-45
2021/04/26 08:22:12;;;;;;;2.42;1.88;;;23.60;29.40;;;;;;5048361;28;20225;-51
2021/04/26 08:24:38;;;;;;;2.50;1.98;;;23.60;30.00;;;;;;5048501;28;20249;-47
2021/04/26 08:27:04;;;;;;;3.03;2.00;;;23.50;29.60;;;;;;5049641;28;20221;-48
2021/04/26 08:29:30;;;;;;;2.60;1.77;;;23.50;29.80;;;;;;5049098;28;20212;-48
2021/04/26 08:31:56;;;;;;;2.58;1.95;;;23.50;29.70;;;;;;5047528;28;20206;-45
2021/04/26 08:34:22;;;;;;;2.85;1.83;;;23.50;29.60;;;;;;5046229;28;20197;-55
2021/04/26 08:36:48;;;;;;;3.03;2.05;;;23.50;29.50;;;;;;5048200;28;20640;-48
2021/04/26 08:39:15;;;;;;;1.75;1.65;;;23.50;29.30;;;;;;5050527;28;20204;-45
2021/04/26 08:41:41;;;;;;;4.72;2.20;;;23.50;29.90;;;;;;5053003;28;20289;-46
2021/04/26 08:44:07;;;;;;;2.13;1.90;;;23.50;29.40;;;;;;5050422;28;20634;-50
2021/04/26 08:46:33;;;;;;;2.38;2.10;;;23.50;29.60;;;;;;5046429;28;20225;-47
2021/04/26 08:48:59;;;;;;;2.03;1.80;;;23.50;29.80;;;;;;5046513;28;20206;-52
2021/04/26 08:51:25;;;;;;;2.67;2.03;;;23.60;30.00;;;;;;5043740;28;20201;-47
2021/04/26 08:53:51;;;;;;;2.10;1.50;;;23.60;29.70;;;;;;5046937;28;20206;-48
2021/04/26 08:56:17;;;;;;;4.10;1.83;;;23.60;29.80;;;;;;5043694;28;20693;-47
2021/04/26 08:58:43;;;;;;;3.28;1.70;;;23.60;29.90;;;;;;5041595;28;20220;-53
2021/04/26 09:01:09;;;;;;;3.85;1.50;;;23.60;29.60;;;;;;5044797;28;20205;-50
2021/04/26 09:03:35;;;;;;;5.03;1.67;;;23.60;29.30;;;;;;5045877;28;20607;-51
2021/04/26 09:06:01;;;;;;;2.80;1.80;;;23.60;29.50;;;;;;5045638;28;20237;-49
2021/04/26 09:08:28;;;;;;;2.85;1.90;;;23.60;29.50;;;;;;5044312;28;20209;-45
2021/04/26 09:10:54;;;;;;;3.97;1.95;;;23.60;29.50;;;;;;5048753;28;20202;-50
2021/04/26 09:13:20;;;;;;;2.38;1.70;;;23.60;29.20;;;;;;5047700;28;20202;-47
2021/04/26 09:15:46;;;;;;;2.10;1.88;;;23.60;29.30;;;;;;5048290;28;20271;-51
2021/04/26 09:18:12;;;;;;;3.35;1.90;;;23.60;29.20;;;;;;5046813;28;20259;-54
2021/04/26 09:20:38;;;;;;;1.92;1.67;;;23.60;29.00;;;;;;5046573;28;20202;-52
2021/04/26 09:23:05;;;;;;;3.47;1.90;;;23.60;28.90;;;;;;5050310;28;20197;-53
2021/04/26 09:25:31;;;;;;;2.42;1.70;;;23.70;29.50;;;;;;5051922;28;20294;-50
2021/04/26 09:27:57;;;;;;;3.33;2.08;;;23.70;29.40;;;;;;5056551;28;20201;-43
2021/04/26 09:30:23;;;;;;;3.70;2.22;;;23.60;29.20;;;;;;5046450;28;20201;-45
2021/04/26 09:32:49;;;;;;;2.53;2.13;;;23.60;29.70;;;;;;5053036;28;20209;-51
2021/04/26 09:35:15;;;;;;;2.67;2.08;;;23.60;29.50;;;;;;5048722;28;20732;-44
2021/04/26 09:37:41;;;;;;;2.92;1.80;;;23.70;29.00;;;;;;5053382;28;20194;-55
2021/04/26 09:40:07;;;;;;;2.33;2.13;;;23.70;30.30;;;;;;5046050;28;20328;-53
2021/04/26 09:42:33;;;;;;;2.85;1.92;;;23.70;29.60;;;;;;5048545;28;20202;-52
2021/04/26 09:44:59;;;;;;;2.50;2.10;;;23.70;29.20;;;;;;5050403;28;20280;-47
2021/04/26 09:47:25;;;;;;;6.05;2.13;;;23.70;29.40;;;;;;5047004;28;20650;-52
2021/04/26 09:49:51;;;;;;;4.15;2.47;;;23.70;30.00;;;;;;5046874;28;20201;-49
2021/04/26 09:52:17;;;;;;;5.32;2.10;;;23.70;29.90;;;;;;5049962;28;20642;-50
2021/04/26 09:54:43;;;;;;;5.47;2.25;;;23.80;30.00;;;;;;5048241;28;20193;-48
2021/04/26 09:57:09;;;;;;;8.05;2.15;;;23.80;30.00;;;;;;5047650;28;20220;-45
2021/04/26 09:59:35;;;;;;;4.05;2.38;;;23.80;30.40;;;;;;5044319;28;20204;-54
2021/04/26 10:02:01;;;;;;;3.15;2.17;;;23.80;30.20;;;;;;5040923;28;20213;-50
2021/04/26 10:04:27;;;;;;;3.10;2.10;;;23.80;30.10;;;;;;5050187;28;20658;-56
2021/04/26 10:06:53;;;;;;;9.35;2.38;;;23.70;30.20;;;;;;5052493;28;20201;-48
2021/04/26 10:09:19;;;;;;;3.70;2.50;;;23.80;30.00;;;;;;5052157;28;20206;-55
2021/04/26 10:11:45;;;;;;;3.85;2.67;;;23.70;29.30;;;;;;5052265;28;20201;-44
2021/04/26 10:14:11;;;;;;;3.88;3.28;;;23.60;27.90;;;;;;5051227;28;20523;-45
2021/04/26 10:16:37;;;;;;;6.85;2.60;;;23.50;27.00;;;;;;5051517;28;20217;-48
2021/04/26 10:19:03;;;;;;;9.65;3.58;;;23.50;26.70;;;;;;5049381;28;20198;-44
2021/04/26 10:21:29;;;;;;;6.20;2.28;;;23.50;26.70;;;;;;5051109;28;20282;-43
2021/04/26 10:23:55;;;;;;;4.32;2.30;;;23.50;26.70;;;;;;5050508;28;20198;-49
2021/04/26 10:26:21;;;;;;;5.72;2.60;;;23.50;26.70;;;;;;5052893;28;20736;-44
2021/04/26 10:28:47;;;;;;;5.25;2.70;;;23.50;26.80;;;;;;5052091;28;20202;-50
2021/04/26 10:31:15;;;;;;;5.40;2.35;;;23.60;27.10;;;;;;5048100;28;20206;-49
2021/04/26 10:33:41;;;;;;;5.47;2.45;;;23.60;27.00;;;;;;5040536;28;20206;-48
2021/04/26 10:36:07;;;;;;;3.17;2.38;;;23.60;26.90;;;;;;5050008;28;20236;-44
2021/04/26 10:38:32;;;;;;;3.28;2.28;;;23.60;27.30;;;;;;5049549;28;20202;-54
2021/04/26 10:40:58;;;;;;;3.47;2.08;;;23.60;27.30;;;;;;5051325;28;20201;-46
2021/04/26 10:43:24;;;;;;;2.38;2.17;;;23.60;27.30;;;;;;5052957;28;20206;-50
2021/04/26 10:45:50;;;;;;;3.60;2.17;;;23.60;27.30;;;;;;5051707;28;20666;-49
2021/04/26 10:48:16;;;;;;;2.38;2.10;;;23.50;27.30;;;;;;5050229;28;20208;-46
2021/04/26 10:50:42;;;;;;;3.33;2.17;;;23.60;27.30;;;;;;5050553;28;20201;-50
2021/04/26 10:53:08;;;;;;;3.58;2.05;;;23.60;27.40;;;;;;5050874;28;20604;-44
2021/04/26 10:55:34;;;;;;;2.20;2.00;;;23.60;27.30;;;;;;5051199;28;20234;-47
2021/04/26 10:58:01;;;;;;;3.85;2.08;;;23.60;27.40;;;;;;5050445;28;20602;-46
2021/04/26 11:00:29;;;;;;;4.28;2.30;;;23.60;27.30;;;;;;5051285;28;20291;-51
2021/04/26 11:02:55;;;;;;;2.35;1.90;;;23.60;27.30;;;;;;5051163;28;20221;-47
2021/04/26 11:05:22;;;;;;;3.05;1.98;;;23.60;27.30;;;;;;5046102;28;20313;-46
2021/04/26 11:07:51;;;;;;;2.35;1.98;;;23.60;27.30;;;;;;5051493;28;20205;-49
2021/04/26 11:10:17;;;;;;;2.60;2.40;;;23.60;27.30;;;;;;5051020;28;20209;-48
2021/04/26 11:12:43;;;;;;;5.05;2.60;;;23.50;27.20;;;;;;5051084;28;20198;-47
2021/04/26 11:15:09;;;;;;;3.42;2.42;;;23.60;27.20;;;;;;5050648;28;20535;-49
2021/04/26 11:17:35;;;;;;;3.97;2.47;;;23.60;27.20;;;;;;5050233;28;20307;-49
2021/04/26 11:20:01;;;;;;;3.17;2.20;;;23.60;27.30;;;;;;5052596;28;20692;-49
2021/04/26 11:22:27;;;;;;;5.07;3.10;;;23.60;27.30;;;;;;5049013;28;20216;-47
2021/04/26 11:24:53;;;;;;;6.38;2.90;;;23.60;27.30;;;;;;5051690;28;20245;-47
2021/04/26 11:27:19;;;;;;;5.10;3.10;;;23.60;27.40;;;;;;5048566;28;20300;-45
2021/04/26 11:29:47;;;;;;;4.40;2.75;;;23.50;27.20;;;;;;5050935;28;20645;-43
2021/04/26 11:32:13;;;;;;;4.63;2.70;;;23.60;27.30;;;;;;5052134;28;20237;-46
2021/04/26 11:34:39;;;;;;;6.50;3.25;;;23.60;27.50;;;;;;5050841;28;20381;-44
2021/04/26 11:37:05;;;;;;;4.90;3.08;;;23.60;27.50;;;;;;5051787;28;20705;-47
2021/04/26 11:39:31;;;;;;;6.28;2.80;;;23.50;27.20;;;;;;5047868;28;20206;-52
2021/04/26 11:41:58;;;;;;;4.57;2.80;;;23.50;27.20;;;;;;5047954;28;20202;-45
2021/04/26 11:44:24;;;;;;;5.15;2.88;;;23.50;27.20;;;;;;5050264;28;20217;-44
2021/04/26 11:46:50;;;;;;;4.68;2.80;;;23.50;27.20;;;;;;5051259;28;20844;-46
2021/04/26 11:49:16;;;;;;;4.93;2.78;;;23.50;27.20;;;;;;5051395;28;20206;-49
2021/04/26 11:51:42;;;;;;;7.03;3.20;;;23.50;27.20;;;;;;5048032;28;20206;-54
2021/04/26 11:54:07;;;;;;;4.88;2.97;;;23.50;27.20;;;;;;5051102;28;20351;-50
2021/04/26 11:56:33;;;;;;;5.00;3.00;;;23.50;27.20;;;;;;5049703;28;20198;-50
2021/04/26 11:58:59;;;;;;;4.57;2.67;;;23.50;27.60;;;;;;5049486;28;20643;-45
2021/04/26 12:01:25;;;;;;;6.53;3.22;;;23.50;27.00;;;;;;5050827;28;20202;-45
2021/04/26 12:03:51;;;;;;;4.43;2.90;;;23.50;26.80;;;;;;5051421;28;20673;-48
2021/04/26 12:06:17;;;;;;;4.95;2.70;;;23.50;26.70;;;;;;5050774;28;20229;-49
2021/04/26 12:08:43;;;;;;;4.25;2.60;;;23.50;26.70;;;;;;5049996;28;20206;-44
2021/04/26 12:11:09;;;;;;;5.13;2.92;;;23.50;27.00;;;;;;5051398;28;20265;-48
2021/04/26 12:13:35;;;;;;;4.78;2.35;;;23.50;26.90;;;;;;5050003;28;20194;-46
2021/04/26 12:16:01;;;;;;;4.53;2.85;;;23.50;26.60;;;;;;5045000;28;20225;-43
2021/04/26 12:18:27;;;;;;;5.30;2.80;;;23.40;25.90;;;;;;5049702;28;20225;-47
2021/04/26 12:20:53;;;;;;;4.47;2.75;;;23.40;25.90;;;;;;5050229;28;20193;-44
2021/04/26 12:23:20;;;;;;;4.70;2.90;;;23.50;26.30;;;;;;5049457;28;20582;-49
2021/04/26 12:25:47;;;;;;;5.72;2.58;;;23.50;26.30;;;;;;5048390;28;20229;-46
2021/04/26 12:28:13;;;;;;;4.60;2.60;;;23.50;26.40;;;;;;5047427;28;20205;-49
2021/04/26 12:30:39;;;;;;;3.03;2.63;;;23.50;26.40;;;;;;5049782;28;20229;-45
2021/04/26 12:33:05;;;;;;;3.50;2.65;;;23.50;26.30;;;;;;5047002;28;20576;-50
2021/04/26 12:35:32;;;;;;;7.57;2.60;;;23.50;26.20;;;;;;5050446;28;20222;-37
2021/04/26 12:37:57;;;;;;;6.50;3.00;;;23.50;26.40;;;;;;5047909;28;20271;-43
2021/04/26 12:40:24;;;;;;;4.53;2.50;;;23.50;26.60;;;;;;5051274;28;21024;-39
2021/04/26 12:42:50;;;;;;;2.97;2.63;;;23.50;25.80;;;;;;5049058;28;20294;-38